Time;durP1;ratioP1;P1;durP2;ratioP2;P2;SDS_P1;SDS_P2;PMS_P1;PMS_P2;Temp;Humidity;BMP_temperature;BMP_pressure;BME280_temperature;BME280_humidity;BME280_pressure;Samples;Min_cycle;Max_cycle;Signal;HPM_P1;HPM_P2
2022/08/24 00:01:55;;;;;;;2.08;1.20;;;24.10;72.40;;;;;;4941488;29;20256;-68
2022/08/24 00:04:22;;;;;;;1.90;1.25;;;24.10;72.60;;;;;;4920280;29;20218;-68
2022/08/24 00:06:48;;;;;;;1.92;1.27;;;24.10;72.90;;;;;;4919545;29;20189;-68
2022/08/24 00:09:14;;;;;;;2.55;1.80;;;24.00;73.10;;;;;;4915496;29;20202;-68
2022/08/24 00:11:40;;;;;;;2.78;1.40;;;24.00;73.30;;;;;;4901486;29;20210;-69
2022/08/24 00:14:07;;;;;;;3.63;1.40;;;23.90;74.10;;;;;;4916227;29;20178;-69
2022/08/24 00:16:34;;;;;;;2.47;1.50;;;23.90;73.70;;;;;;4915095;29;20190;-70
2022/08/24 00:19:03;;;;;;;2.30;1.38;;;23.80;73.80;;;;;;4913648;29;20202;-69
2022/08/24 00:21:28;;;;;;;3.13;1.80;;;23.80;74.10;;;;;;4899232;29;20261;-69
2022/08/24 00:23:57;;;;;;;2.20;1.40;;;23.80;74.50;;;;;;4915097;29;20270;-68
2022/08/24 00:26:24;;;;;;;2.80;1.60;;;23.70;74.90;;;;;;4915097;29;20266;-69
2022/08/24 00:28:50;;;;;;;1.95;1.60;;;23.70;75.90;;;;;;4912044;29;20351;-68
2022/08/24 00:31:21;;;;;;;3.53;1.63;;;23.70;75.80;;;;;;4909600;29;20257;-69
2022/08/24 00:33:46;;;;;;;3.40;1.67;;;23.60;76.60;;;;;;4906293;29;20203;-69
2022/08/24 00:36:17;;;;;;;3.05;1.42;;;23.60;77.20;;;;;;4896627;29;20206;-69
2022/08/24 00:38:42;;;;;;;2.45;1.60;;;23.60;77.70;;;;;;4913113;29;20181;-69
2022/08/24 00:41:08;;;;;;;2.97;1.50;;;23.50;77.50;;;;;;4914732;29;20202;-69
2022/08/24 00:43:36;;;;;;;3.58;1.58;;;23.50;78.00;;;;;;4914897;29;20218;-68
2022/08/24 00:46:26;;;;;;;3.88;1.90;;;23.50;78.50;;;;;;4915192;29;20214;-69
2022/08/24 00:49:05;;;;;;;2.53;1.42;;;23.50;80.90;;;;;;4914313;29;20194;-68
2022/08/24 00:51:42;;;;;;;3.35;1.60;;;23.50;80.30;;;;;;4914172;29;20221;-69
2022/08/24 00:54:12;;;;;;;7.20;1.52;;;23.50;80.80;;;;;;4914153;29;20206;-68
2022/08/24 00:56:46;;;;;;;3.67;1.30;;;23.40;80.30;;;;;;4914102;29;20209;-68
2022/08/24 00:59:24;;;;;;;3.28;1.85;;;23.40;80.80;;;;;;4889703;29;20226;-68
2022/08/24 01:01:52;;;;;;;3.33;1.48;;;23.40;80.80;;;;;;4899085;29;20197;-69
2022/08/24 01:04:27;;;;;;;3.47;1.58;;;23.40;80.60;;;;;;4860410;29;1119958;-68
2022/08/24 01:06:55;;;;;;;3.13;1.38;;;23.40;81.40;;;;;;4897171;29;20279;-68
2022/08/24 01:09:21;;;;;;;1.98;1.30;;;23.40;80.70;;;;;;4884837;29;20187;-69
2022/08/24 01:11:48;;;;;;;2.40;1.33;;;23.40;80.70;;;;;;4900639;29;20202;-69
2022/08/24 01:14:15;;;;;;;3.00;1.60;;;23.40;80.70;;;;;;4899010;29;20290;-69
2022/08/24 01:19:42;;;;;;;2.13;1.50;;;23.30;80.50;;;;;;4918876;29;20201;-69
2022/08/24 01:22:31;;;;;;;2.15;1.48;;;23.30;80.90;;;;;;4930691;29;20236;-69
2022/08/24 01:24:57;;;;;;;3.45;1.40;;;23.20;80.50;;;;;;4891309;29;20202;-69
2022/08/24 01:27:25;;;;;;;2.63;1.42;;;23.20;80.40;;;;;;4899281;29;20175;-69
2022/08/24 01:29:54;;;;;;;2.05;1.25;;;23.10;81.00;;;;;;4911768;29;20206;-69
2022/08/24 01:32:23;;;;;;;2.45;1.38;;;23.10;80.80;;;;;;4900998;29;20752;-69
2022/08/24 01:34:49;;;;;;;3.47;1.17;;;23.00;81.50;;;;;;4906028;29;20178;-69
2022/08/24 01:37:15;;;;;;;3.00;1.45;;;23.00;81.30;;;;;;4898841;29;20249;-69
2022/08/24 01:39:43;;;;;;;1.90;1.30;;;23.00;81.40;;;;;;4899607;29;20269;-69
2022/08/24 01:42:10;;;;;;;1.60;1.15;;;23.00;81.90;;;;;;4913915;29;20202;-69
2022/08/24 01:44:40;;;;;;;1.92;1.40;;;22.90;81.80;;;;;;4896531;29;20207;-69
2022/08/24 01:47:11;;;;;;;2.45;1.35;;;22.90;82.60;;;;;;4899219;29;20189;-70
2022/08/24 01:49:40;;;;;;;3.13;1.40;;;22.90;82.90;;;;;;4889536;29;20183;-70
2022/08/24 01:52:09;;;;;;;2.15;1.33;;;22.80;83.30;;;;;;4908603;29;20179;-70
2022/08/24 01:54:35;;;;;;;1.65;1.27;;;22.80;82.50;;;;;;4917939;29;20199;-69
2022/08/24 01:57:03;;;;;;;1.65;1.27;;;22.70;82.30;;;;;;4910891;29;20277;-69
2022/08/24 01:59:31;;;;;;;1.70;1.20;;;22.70;82.70;;;;;;4898645;29;20422;-70
2022/08/24 02:02:05;;;;;;;2.00;1.25;;;22.60;83.60;;;;;;4896638;29;20175;-69
2022/08/24 02:04:37;;;;;;;5.82;1.55;;;22.60;84.20;;;;;;4910437;29;20199;-70
2022/08/24 02:07:08;;;;;;;3.83;1.50;;;22.50;84.50;;;;;;4914634;29;20210;-68
2022/08/24 02:09:34;;;;;;;2.88;1.45;;;22.50;84.10;;;;;;4911219;29;20207;-69
2022/08/24 02:12:00;;;;;;;2.33;1.35;;;22.50;84.20;;;;;;4898423;29;20194;-69
2022/08/24 02:14:28;;;;;;;2.03;1.35;;;22.40;84.50;;;;;;4897810;29;20210;-69
2022/08/24 02:16:56;;;;;;;2.42;1.50;;;22.40;85.00;;;;;;4899121;29;20269;-69
2022/08/24 02:19:22;;;;;;;2.55;1.52;;;22.30;85.20;;;;;;4898436;29;20214;-69
2022/08/24 02:21:50;;;;;;;2.67;1.45;;;22.30;85.70;;;;;;4905361;29;20178;-69
2022/08/24 02:24:16;;;;;;;2.95;1.50;;;22.20;86.60;;;;;;4926880;29;20179;-69
2022/08/24 02:26:42;;;;;;;1.70;1.35;;;22.20;86.60;;;;;;4899325;29;20258;-69
2022/08/24 02:29:07;;;;;;;2.22;1.40;;;22.20;87.20;;;;;;4892792;29;20183;-69
2022/08/24 02:31:35;;;;;;;2.70;1.58;;;22.10;87.60;;;;;;4899402;29;20229;-69
2022/08/24 02:34:04;;;;;;;1.55;1.30;;;22.10;88.10;;;;;;4905852;29;20269;-69
2022/08/24 02:36:30;;;;;;;2.22;1.42;;;22.00;88.50;;;;;;4901319;29;20331;-69
2022/08/24 02:38:56;;;;;;;1.92;1.52;;;22.00;89.80;;;;;;4901293;29;20250;-69
2022/08/24 02:41:24;;;;;;;2.50;1.50;;;22.00;89.90;;;;;;4892942;29;20257;-68
2022/08/24 02:43:53;;;;;;;2.20;1.40;;;22.00;90.10;;;;;;4897090;29;20331;-69
2022/08/24 02:46:24;;;;;;;2.55;1.60;;;21.90;90.40;;;;;;4900924;29;20233;-69
2022/08/24 02:48:53;;;;;;;1.92;1.50;;;21.90;90.70;;;;;;4901317;29;20218;-69
2022/08/24 02:51:27;;;;;;;3.25;1.63;;;21.90;90.90;;;;;;4917063;29;20266;-69
2022/08/24 02:53:53;;;;;;;2.75;1.80;;;21.80;91.80;;;;;;4884547;29;20209;-68
2022/08/24 02:56:19;;;;;;;1.98;1.67;;;21.80;91.40;;;;;;4902251;29;20182;-69
2022/08/24 02:58:46;;;;;;;3.53;1.80;;;21.70;91.70;;;;;;4900333;29;20182;-69
2022/08/24 03:01:15;;;;;;;3.65;1.77;;;21.70;92.00;;;;;;4910177;29;20179;-69
2022/08/24 03:03:45;;;;;;;3.15;1.65;;;21.70;92.30;;;;;;4889585;29;20209;-69
2022/08/24 03:06:14;;;;;;;2.35;1.52;;;21.70;92.90;;;;;;4900400;29;20297;-68
2022/08/24 03:08:40;;;;;;;3.63;1.67;;;21.70;92.80;;;;;;4901633;29;20190;-69
2022/08/24 03:11:07;;;;;;;2.20;1.60;;;21.70;93.00;;;;;;4895692;29;20238;-68
2022/08/24 03:13:33;;;;;;;2.78;1.75;;;21.70;93.30;;;;;;4888364;29;20182;-69
2022/08/24 03:16:01;;;;;;;3.08;1.60;;;21.70;93.40;;;;;;4907951;29;20352;-69
2022/08/24 03:18:27;;;;;;;1.80;1.42;;;21.70;93.70;;;;;;4900511;29;20202;-69
2022/08/24 03:20:57;;;;;;;2.25;1.58;;;21.60;93.80;;;;;;4901408;29;20212;-69
2022/08/24 03:23:23;;;;;;;2.40;1.63;;;21.70;94.50;;;;;;4901553;29;20193;-69
2022/08/24 03:25:52;;;;;;;2.03;1.45;;;21.60;94.20;;;;;;4903808;29;20295;-69
2022/08/24 03:28:20;;;;;;;2.28;1.50;;;21.60;94.30;;;;;;4893017;29;20286;-70
2022/08/24 03:30:46;;;;;;;2.05;1.42;;;21.60;94.40;;;;;;4923794;29;20200;-71
2022/08/24 03:33:11;;;;;;;1.90;1.45;;;21.60;94.50;;;;;;4906679;29;20190;-68
2022/08/24 03:35:38;;;;;;;2.15;1.40;;;21.60;94.60;;;;;;4902499;29;20178;-69
2022/08/24 03:38:04;;;;;;;2.63;1.60;;;21.60;94.60;;;;;;4901223;29;20216;-69
2022/08/24 03:40:33;;;;;;;2.85;1.77;;;21.60;94.70;;;;;;4896291;29;20262;-69
2022/08/24 03:43:00;;;;;;;2.15;1.58;;;21.60;94.80;;;;;;4912393;29;20182;-69
2022/08/24 03:45:26;;;;;;;1.90;1.45;;;21.60;94.90;;;;;;4901142;29;20191;-69
2022/08/24 03:47:53;;;;;;;4.97;1.63;;;21.50;95.00;;;;;;4914360;29;20197;-69
2022/08/24 03:50:19;;;;;;;3.83;1.60;;;21.50;95.10;;;;;;4885163;29;20191;-69
2022/08/24 03:52:48;;;;;;;2.63;1.55;;;21.50;95.20;;;;;;4898734;29;20215;-68
2022/08/24 03:55:17;;;;;;;3.67;1.90;;;21.50;95.40;;;;;;4916459;29;20186;-68
2022/08/24 03:57:43;;;;;;;3.28;1.50;;;21.50;95.80;;;;;;4914735;29;20370;-69
2022/08/24 04:00:11;;;;;;;2.28;1.58;;;21.40;95.50;;;;;;4889973;29;20203;-69
2022/08/24 04:02:39;;;;;;;4.13;3.35;;;21.40;95.80;;;;;;4896734;29;20294;-70
2022/08/24 04:05:06;;;;;;;4.65;2.90;;;21.30;96.20;;;;;;4917357;29;20223;-69
2022/08/24 04:07:32;;;;;;;17.73;13.38;;;21.30;96.00;;;;;;4916827;29;20511;-69
2022/08/24 04:10:00;;;;;;;10.70;8.43;;;21.30;96.20;;;;;;4916479;29;21365;-69
2022/08/24 04:12:29;;;;;;;8.02;5.20;;;21.20;96.40;;;;;;4899745;29;20210;-69
2022/08/24 04:14:54;;;;;;;5.53;4.15;;;21.20;96.70;;;;;;4900901;29;20175;-69
2022/08/24 04:17:25;;;;;;;4.22;3.28;;;21.20;96.70;;;;;;4913122;29;20230;-74
2022/08/24 04:19:56;;;;;;;2.72;2.28;;;21.20;97.10;;;;;;4901884;29;20199;-69
2022/08/24 04:22:27;;;;;;;4.80;3.35;;;21.10;96.90;;;;;;4920568;29;20202;-69
2022/08/24 04:24:52;;;;;;;3.33;2.40;;;21.10;97.10;;;;;;4917743;29;20175;-70
2022/08/24 04:27:21;;;;;;;6.57;2.05;;;21.10;97.10;;;;;;4917796;29;20230;-70
2022/08/24 04:29:49;;;;;;;2.92;2.08;;;21.10;97.10;;;;;;4914219;29;20238;-70
2022/08/24 04:32:15;;;;;;;3.13;2.10;;;21.10;97.20;;;;;;4917607;29;20262;-70
2022/08/24 04:34:42;;;;;;;2.97;1.80;;;21.10;97.40;;;;;;4919215;29;20404;-69
2022/08/24 04:37:13;;;;;;;3.70;1.90;;;21.00;97.60;;;;;;4906509;29;20182;-69
2022/08/24 04:39:42;;;;;;;3.95;1.88;;;20.90;97.80;;;;;;4899719;29;20209;-69
2022/08/24 04:42:12;;;;;;;6.25;2.88;;;20.90;98.10;;;;;;4900710;29;20266;-69
2022/08/24 04:44:40;;;;;;;8.82;3.63;;;20.90;98.30;;;;;;4899771;29;20166;-70
2022/08/24 04:47:07;;;;;;;6.95;5.20;;;20.80;98.50;;;;;;4927848;29;20189;-69
2022/08/24 04:49:33;;;;;;;5.57;3.85;;;20.80;98.40;;;;;;4902669;29;20470;-75
2022/08/24 04:51:59;;;;;;;4.60;2.53;;;20.80;98.70;;;;;;4899566;29;20224;-75
2022/08/24 04:54:26;;;;;;;4.65;3.00;;;20.80;99.00;;;;;;4903737;29;20191;-75
2022/08/24 04:56:52;;;;;;;4.25;2.55;;;20.70;99.40;;;;;;4910727;29;20187;-75
2022/08/24 04:59:20;;;;;;;4.55;2.40;;;20.70;99.90;;;;;;4899836;29;20212;-75
2022/08/24 05:01:47;;;;;;;2.80;2.10;;;20.70;99.90;;;;;;4902120;29;20198;-74
2022/08/24 05:04:13;;;;;;;2.20;1.75;;;20.60;99.90;;;;;;4900548;29;20228;-74
2022/08/24 05:06:40;;;;;;;3.45;2.28;;;20.60;99.90;;;;;;4899552;29;20245;-75
2022/08/24 05:09:05;;;;;;;3.05;2.10;;;20.70;99.90;;;;;;4894323;29;20184;-74
2022/08/24 05:11:31;;;;;;;3.60;2.25;;;20.70;99.90;;;;;;4916158;29;20262;-75
2022/08/24 05:14:00;;;;;;;2.13;1.70;;;20.70;99.90;;;;;;4913478;29;20214;-75
2022/08/24 05:16:31;;;;;;;3.20;1.90;;;20.70;99.90;;;;;;4899347;29;20175;-75
2022/08/24 05:18:56;;;;;;;3.03;2.00;;;20.70;99.90;;;;;;4915458;29;20186;-73
2022/08/24 05:21:23;;;;;;;2.50;1.70;;;20.80;99.90;;;;;;4898250;29;20221;-75
2022/08/24 05:23:52;;;;;;;3.30;2.20;;;20.80;99.90;;;;;;4894146;29;20174;-75
2022/08/24 05:26:23;;;;;;;5.95;4.18;;;20.90;99.90;;;;;;4898248;29;20175;-75
2022/08/24 05:28:54;;;;;;;3.97;2.20;;;20.90;99.90;;;;;;4897141;29;20175;-75
2022/08/24 05:31:24;;;;;;;3.22;2.17;;;20.90;99.90;;;;;;4896591;29;20186;-75
2022/08/24 05:33:52;;;;;;;3.53;2.22;;;21.00;99.90;;;;;;4913123;29;20250;-72
2022/08/24 05:36:33;;;;;;;3.65;2.35;;;21.00;99.90;;;;;;4899162;29;20190;-72
2022/08/24 05:39:02;;;;;;;3.05;1.90;;;21.10;99.90;;;;;;4899917;29;20273;-73
2022/08/24 05:41:30;;;;;;;2.47;2.20;;;21.10;99.90;;;;;;4899229;29;20251;-72
2022/08/24 05:44:00;;;;;;;3.13;2.05;;;21.10;99.90;;;;;;4899713;29;20186;-74
2022/08/24 05:46:27;;;;;;;3.65;2.22;;;21.20;99.90;;;;;;4899149;29;20233;-74
2022/08/24 05:48:53;;;;;;;2.65;1.90;;;21.20;99.90;;;;;;4906810;29;20246;-75
2022/08/24 05:51:20;;;;;;;4.88;2.58;;;21.30;99.90;;;;;;4913504;29;20186;-73
2022/08/24 05:53:45;;;;;;;3.67;2.30;;;21.30;99.90;;;;;;4897143;29;20214;-75
2022/08/24 05:56:13;;;;;;;6.05;2.03;;;21.30;99.90;;;;;;4904182;29;20190;-74
2022/08/24 05:58:39;;;;;;;4.22;2.65;;;21.40;99.90;;;;;;4906271;29;20191;-76
2022/08/24 06:01:13;;;;;;;3.83;2.17;;;21.40;99.90;;;;;;4900602;29;20206;-73
2022/08/24 06:03:40;;;;;;;3.30;1.85;;;21.50;99.90;;;;;;4899301;29;20194;-75
2022/08/24 06:06:07;;;;;;;3.80;2.20;;;21.50;99.90;;;;;;4901101;29;20187;-75
2022/08/24 06:08:42;;;;;;;2.28;1.67;;;21.60;99.90;;;;;;4907083;29;20198;-71
2022/08/24 06:11:08;;;;;;;3.60;1.90;;;21.60;99.90;;;;;;4914926;29;20209;-75
2022/08/24 06:13:34;;;;;;;2.70;1.70;;;21.60;99.90;;;;;;4900223;29;20175;-75
2022/08/24 06:16:15;;;;;;;2.83;1.70;;;21.70;99.90;;;;;;4899631;29;20198;-73
2022/08/24 06:18:43;;;;;;;3.58;1.90;;;21.70;99.90;;;;;;4900800;29;20190;-75
2022/08/24 06:21:13;;;;;;;3.03;1.92;;;21.70;99.90;;;;;;4906247;29;20228;-75
2022/08/24 06:23:42;;;;;;;3.03;1.80;;;21.80;99.90;;;;;;4900349;29;20179;-74
2022/08/24 06:28:56;;;;;;;3.35;1.80;;;21.80;99.90;;;;;;4901166;29;20209;-75
2022/08/24 06:31:25;;;;;;;3.55;1.70;;;21.90;99.90;;;;;;4904748;29;20179;-74
2022/08/24 06:33:51;;;;;;;4.72;1.73;;;22.00;99.90;;;;;;4914833;29;20182;-75
2022/08/24 06:36:16;;;;;;;1.98;1.67;;;22.00;99.90;;;;;;4900342;29;20167;-76
2022/08/24 06:38:44;;;;;;;3.17;1.63;;;22.00;99.90;;;;;;4915447;29;20175;-75
2022/08/24 06:41:13;;;;;;;3.00;2.20;;;22.10;99.90;;;;;;4900582;29;20206;-74
2022/08/24 06:43:38;;;;;;;4.60;3.05;;;22.10;99.90;;;;;;4901176;29;20182;-75
2022/08/24 06:46:05;;;;;;;2.70;2.20;;;22.20;99.90;;;;;;4908541;29;20190;-75
2022/08/24 06:48:33;;;;;;;2.72;2.15;;;22.20;99.90;;;;;;4900050;29;20175;-74
2022/08/24 06:51:01;;;;;;;4.00;1.90;;;22.30;99.90;;;;;;4914421;29;20179;-74
2022/08/24 06:53:27;;;;;;;3.50;2.00;;;22.30;99.90;;;;;;4922146;29;20241;-75
2022/08/24 06:56:00;;;;;;;3.50;1.95;;;22.40;99.90;;;;;;4899776;29;20187;-74
2022/08/24 06:58:27;;;;;;;3.42;1.95;;;22.50;99.90;;;;;;4910313;29;20246;-75
2022/08/24 07:00:56;;;;;;;3.45;1.98;;;22.50;99.90;;;;;;4914836;29;20384;-75
2022/08/24 07:03:23;;;;;;;3.22;2.28;;;22.60;99.90;;;;;;4898443;29;20361;-76
2022/08/24 07:05:55;;;;;;;2.88;1.75;;;22.60;99.90;;;;;;4899320;29;20197;-76
2022/08/24 07:08:24;;;;;;;7.22;2.00;;;22.70;99.90;;;;;;4887864;29;20246;-75
2022/08/24 07:10:50;;;;;;;5.35;2.33;;;22.80;99.90;;;;;;4914642;29;20309;-75
2022/08/24 07:13:16;;;;;;;4.20;2.03;;;22.80;99.90;;;;;;4905690;29;20229;-75
2022/08/24 07:15:43;;;;;;;4.78;2.70;;;22.90;99.90;;;;;;4901569;29;20195;-75
2022/08/24 07:18:17;;;;;;;3.97;2.08;;;22.90;99.90;;;;;;4908619;29;20249;-75
2022/08/24 07:20:43;;;;;;;4.72;2.05;;;23.00;99.90;;;;;;4930727;29;20232;-72
2022/08/24 07:23:11;;;;;;;7.97;2.13;;;23.10;99.90;;;;;;4926105;29;20186;-72
2022/08/24 07:25:37;;;;;;;3.10;1.85;;;23.20;99.90;;;;;;4918260;29;20261;-74
2022/08/24 07:28:03;;;;;;;3.03;1.98;;;23.20;99.90;;;;;;4917923;29;20258;-73
2022/08/24 07:30:29;;;;;;;3.35;2.25;;;23.30;99.90;;;;;;4918128;29;20211;-73
2022/08/24 07:32:56;;;;;;;5.22;2.22;;;23.40;99.90;;;;;;4921472;29;20185;-75
2022/08/24 07:35:26;;;;;;;2.60;1.92;;;23.40;99.90;;;;;;4927141;29;20186;-75
2022/08/24 07:37:53;;;;;;;3.67;1.75;;;23.50;99.90;;;;;;4899360;29;20211;-75
2022/08/24 07:40:19;;;;;;;5.13;1.90;;;23.60;99.90;;;;;;4912057;29;20210;-75
2022/08/24 07:42:52;;;;;;;2.70;1.75;;;23.60;99.90;;;;;;4929136;29;20237;-75
2022/08/24 07:45:21;;;;;;;6.35;1.98;;;23.80;99.90;;;;;;4936891;29;20170;-75
2022/08/24 07:47:50;;;;;;;2.50;1.80;;;23.80;99.90;;;;;;4929614;29;20214;-74
2022/08/24 07:50:16;;;;;;;5.10;3.05;;;23.90;99.90;;;;;;4901791;29;20186;-74
2022/08/24 07:52:45;;;;;;;2.72;2.25;;;24.00;99.90;;;;;;4903758;29;20183;-75
2022/08/24 07:55:12;;;;;;;3.40;2.15;;;24.10;99.90;;;;;;4917973;29;20264;-75
2022/08/24 07:57:40;;;;;;;2.45;1.60;;;24.20;99.90;;;;;;4901430;29;20183;-75
2022/08/24 08:00:14;;;;;;;3.38;1.98;;;24.30;99.90;;;;;;4907124;29;20238;-75
2022/08/24 08:02:45;;;;;;;4.57;2.03;;;24.30;99.90;;;;;;4918681;29;20218;-74
2022/08/24 08:05:14;;;;;;;2.28;1.98;;;24.40;99.90;;;;;;4918358;29;20202;-75
2022/08/24 08:07:39;;;;;;;2.80;1.90;;;24.50;99.90;;;;;;4903862;29;20226;-75
2022/08/24 08:10:11;;;;;;;2.30;1.52;;;24.60;99.90;;;;;;4916912;29;20206;-74
2022/08/24 08:12:37;;;;;;;2.58;1.73;;;24.70;99.80;;;;;;4917145;29;20198;-75
2022/08/24 08:15:08;;;;;;;1.95;1.50;;;24.80;99.60;;;;;;4901320;29;20174;-75
2022/08/24 08:17:39;;;;;;;3.22;1.98;;;24.90;99.20;;;;;;4903542;29;20198;-74
2022/08/24 08:20:07;;;;;;;2.97;2.13;;;25.00;99.10;;;;;;4902288;29;20302;-74
2022/08/24 08:25:23;;;;;;;2.60;1.98;;;25.20;98.60;;;;;;4903398;29;20169;-73
2022/08/24 08:27:49;;;;;;;2.70;1.80;;;25.30;98.40;;;;;;4902812;29;20213;-74
2022/08/24 08:30:15;;;;;;;2.53;1.90;;;25.40;98.00;;;;;;4929434;29;20242;-74
2022/08/24 08:32:45;;;;;;;5.43;1.98;;;25.40;97.70;;;;;;4929289;29;20222;-75
2022/08/24 08:35:11;;;;;;;3.78;2.00;;;25.60;97.50;;;;;;4910270;29;20209;-73
2022/08/24 08:37:37;;;;;;;2.85;2.20;;;25.70;97.40;;;;;;4902155;29;20515;-74
2022/08/24 08:40:05;;;;;;;4.18;2.10;;;25.70;96.90;;;;;;4927303;29;20269;-75
2022/08/24 08:42:46;;;;;;;3.28;1.73;;;25.80;96.80;;;;;;4920023;29;20198;-74
2022/08/24 08:45:34;;;;;;;3.22;1.90;;;26.00;96.40;;;;;;4904532;29;20183;-74
2022/08/24 08:48:30;;;;;;;4.07;1.80;;;26.10;96.00;;;;;;4904195;29;20214;-75
2022/08/24 08:51:09;;;;;;;4.00;2.00;;;26.10;95.60;;;;;;4903246;29;20178;-74
2022/08/24 08:53:59;;;;;;;2.80;1.70;;;26.20;95.90;;;;;;4909228;29;20183;-75
2022/08/24 08:56:34;;;;;;;2.03;1.50;;;26.30;95.10;;;;;;4900309;29;20182;-75
2022/08/24 08:59:33;;;;;;;2.47;1.58;;;26.40;94.90;;;;;;4900678;29;20185;-75
2022/08/24 09:02:47;;;;;;;4.13;2.10;;;26.50;94.50;;;;;;4909800;29;20283;-74
2022/08/24 09:05:37;;;;;;;1.80;1.58;;;26.60;94.10;;;;;;4903548;29;20202;-76
2022/08/24 09:08:27;;;;;;;3.00;1.83;;;26.70;94.30;;;;;;4910158;29;20182;-74
2022/08/24 09:11:05;;;;;;;4.35;1.85;;;26.80;94.00;;;;;;4901184;29;20175;-75
2022/08/24 09:14:01;;;;;;;2.80;1.77;;;26.90;93.60;;;;;;4904988;29;20182;-75
2022/08/24 09:16:45;;;;;;;2.72;1.58;;;27.00;93.10;;;;;;4904333;29;20170;-74
2022/08/24 09:19:51;;;;;;;5.95;1.85;;;27.10;93.80;;;;;;4913494;29;20212;-75
2022/08/24 09:22:20;;;;;;;3.30;1.80;;;27.20;92.70;;;;;;4887837;29;20253;-75
2022/08/24 09:24:52;;;;;;;2.10;1.73;;;27.30;92.80;;;;;;4900599;29;20183;-75
2022/08/24 09:27:38;;;;;;;2.20;1.75;;;27.40;92.10;;;;;;4916167;29;20209;-75
2022/08/24 09:30:33;;;;;;;2.17;1.70;;;27.50;91.80;;;;;;4901607;29;20187;-74
2022/08/24 09:33:01;;;;;;;5.65;1.80;;;27.60;91.70;;;;;;4888221;29;20182;-75
2022/08/24 09:35:45;;;;;;;2.28;1.60;;;27.70;92.10;;;;;;4905362;29;20318;-72
2022/08/24 09:38:26;;;;;;;2.25;1.83;;;27.80;91.00;;;;;;4896242;29;20201;-75
2022/08/24 09:41:22;;;;;;;4.25;1.80;;;28.00;91.10;;;;;;4935431;29;20218;-75
2022/08/24 09:44:14;;;;;;;2.03;1.60;;;28.00;90.20;;;;;;4935835;29;20182;-74
2022/08/24 09:47:16;;;;;;;2.38;1.80;;;28.20;90.00;;;;;;4913890;29;20201;-75
2022/08/24 09:50:15;;;;;;;4.38;1.80;;;28.30;88.00;;;;;;4893785;29;20211;-75
2022/08/24 09:52:46;;;;;;;2.70;2.10;;;28.50;88.60;;;;;;4893520;29;20265;-75
2022/08/24 09:55:21;;;;;;;3.60;2.00;;;28.60;90.00;;;;;;4900757;29;20242;-75
2022/08/24 09:58:02;;;;;;;3.88;2.08;;;28.60;88.30;;;;;;4904619;29;20209;-75
2022/08/24 10:00:54;;;;;;;2.97;1.88;;;28.80;87.30;;;;;;4907426;29;20212;-75
2022/08/24 10:03:59;;;;;;;2.70;1.90;;;29.00;86.60;;;;;;4899219;29;20238;-75
2022/08/24 10:06:43;;;;;;;3.53;1.90;;;29.10;86.00;;;;;;4888515;29;20241;-75
2022/08/24 10:09:30;;;;;;;2.90;1.60;;;29.30;87.60;;;;;;4902954;29;20182;-76
2022/08/24 10:12:06;;;;;;;2.42;1.80;;;29.70;85.10;;;;;;4902375;29;20197;-74
2022/08/24 10:14:44;;;;;;;4.32;1.90;;;30.20;84.50;;;;;;4902609;29;20182;-75
2022/08/24 10:17:13;;;;;;;2.10;1.73;;;30.90;84.30;;;;;;4901026;29;20188;-74
2022/08/24 10:19:50;;;;;;;3.35;1.77;;;31.60;81.60;;;;;;4918846;29;20261;-75
2022/08/24 10:22:33;;;;;;;2.10;1.70;;;32.20;78.40;;;;;;4899295;29;20182;-75
2022/08/24 10:25:14;;;;;;;2.83;1.60;;;32.80;76.00;;;;;;4903684;29;20198;-76
2022/08/24 10:28:09;;;;;;;3.55;1.70;;;33.30;75.20;;;;;;4917832;29;20202;-74
2022/08/24 10:30:43;;;;;;;1.90;1.63;;;33.50;75.50;;;;;;4934902;29;20199;-76
2022/08/24 10:33:27;;;;;;;2.03;1.80;;;33.50;72.10;;;;;;4910123;29;20186;-76
2022/08/24 10:36:10;;;;;;;2.03;1.77;;;33.40;70.70;;;;;;4911516;29;20229;-75
2022/08/24 10:41:59;;;;;;;2.90;1.90;;;33.30;69.70;;;;;;4910583;29;20224;-74
2022/08/24 10:44:36;;;;;;;1.90;1.67;;;33.20;69.40;;;;;;4935967;29;20190;-76
2022/08/24 10:47:05;;;;;;;2.15;1.70;;;33.20;70.00;;;;;;4912578;29;20264;-76
2022/08/24 10:49:35;;;;;;;2.22;1.80;;;33.30;69.50;;;;;;4914969;29;20225;-70
2022/08/24 10:52:44;;;;;;;2.65;1.70;;;33.30;69.80;;;;;;4912725;29;20179;-76
2022/08/24 10:55:15;;;;;;;2.97;2.17;;;33.20;67.20;;;;;;4902279;29;20178;-76
2022/08/24 10:58:09;;;;;;;4.00;1.90;;;33.30;68.70;;;;;;4918633;29;20174;-75
2022/08/24 11:00:37;;;;;;;2.92;1.80;;;33.30;66.50;;;;;;4898384;29;20214;-74
2022/08/24 11:03:16;;;;;;;2.38;1.60;;;33.30;67.60;;;;;;4885145;29;20238;-75
2022/08/24 11:05:48;;;;;;;2.58;2.00;;;33.50;65.90;;;;;;4901051;29;20216;-76
2022/08/24 11:08:27;;;;;;;2.55;2.08;;;33.70;66.30;;;;;;4918035;29;20186;-76
2022/08/24 11:11:03;;;;;;;2.90;2.10;;;34.00;65.40;;;;;;4903880;29;20237;-74
2022/08/24 11:13:29;;;;;;;2.38;1.70;;;34.40;65.30;;;;;;4902601;29;20197;-75
2022/08/24 11:16:00;;;;;;;1.85;1.70;;;34.60;66.00;;;;;;4918906;29;20204;-74
2022/08/24 11:18:57;;;;;;;2.00;1.58;;;34.80;63.60;;;;;;4918606;29;20196;-75
2022/08/24 11:21:33;;;;;;;4.47;2.05;;;35.00;62.00;;;;;;4918444;29;20285;-76
2022/08/24 11:24:17;;;;;;;2.65;1.92;;;35.10;61.70;;;;;;4904260;29;20182;-77
2022/08/24 11:26:55;;;;;;;4.43;1.70;;;35.30;61.00;;;;;;4928462;29;20190;-77
2022/08/24 11:29:26;;;;;;;2.90;1.40;;;35.50;60.60;;;;;;4924314;29;20244;-76
2022/08/24 11:31:54;;;;;;;1.88;1.55;;;35.50;61.20;;;;;;4909396;29;20189;-75
2022/08/24 11:34:38;;;;;;;3.08;1.52;;;35.70;60.10;;;;;;4903527;29;20225;-76
2022/08/24 11:37:13;;;;;;;2.25;1.60;;;35.80;58.30;;;;;;4902359;29;20193;-75
2022/08/24 11:39:39;;;;;;;1.83;1.65;;;36.00;58.30;;;;;;4902211;29;20213;-76
2022/08/24 11:42:51;;;;;;;1.88;1.50;;;36.20;59.50;;;;;;4933015;29;20221;-76
2022/08/24 11:45:41;;;;;;;1.90;1.42;;;36.30;54.80;;;;;;4912901;29;20461;-77
2022/08/24 11:48:27;;;;;;;1.85;1.40;;;36.50;55.10;;;;;;4908898;29;20178;-76
2022/08/24 11:51:14;;;;;;;2.05;1.40;;;36.60;55.80;;;;;;4903004;29;20206;-74
2022/08/24 11:54:10;;;;;;;2.33;1.50;;;36.60;53.90;;;;;;4918748;29;20194;-75
2022/08/24 11:56:38;;;;;;;1.92;1.40;;;36.70;52.60;;;;;;4919803;29;20316;-75
2022/08/24 11:59:34;;;;;;;2.20;1.50;;;36.80;55.70;;;;;;4883865;29;20206;-75
2022/08/24 12:02:09;;;;;;;2.35;1.45;;;36.80;55.00;;;;;;4932380;29;20194;-73
2022/08/24 12:05:04;;;;;;;2.38;1.30;;;36.90;54.10;;;;;;4903322;29;20296;-76
2022/08/24 12:08:00;;;;;;;4.72;1.58;;;37.00;54.20;;;;;;4882954;29;20261;-77
2022/08/24 12:10:41;;;;;;;2.33;1.40;;;37.10;52.60;;;;;;4900989;29;20197;-76
2022/08/24 12:13:39;;;;;;;2.28;1.55;;;37.10;52.00;;;;;;4903757;29;20237;-75
2022/08/24 12:16:08;;;;;;;2.40;1.55;;;37.10;51.40;;;;;;4917744;29;20185;-77
2022/08/24 12:18:33;;;;;;;2.22;1.55;;;37.20;52.40;;;;;;4917798;29;20170;-76
2022/08/24 12:20:59;;;;;;;2.72;1.90;;;37.20;50.70;;;;;;4914327;29;20269;-73
2022/08/24 12:23:28;;;;;;;3.75;1.38;;;37.20;51.10;;;;;;4882697;29;20195;-77
2022/08/24 12:26:11;;;;;;;1.45;1.35;;;37.30;50.10;;;;;;4904681;29;20190;-75
2022/08/24 12:29:10;;;;;;;1.73;1.42;;;37.40;49.60;;;;;;4920190;29;20198;-76
2022/08/24 12:31:36;;;;;;;2.40;1.40;;;37.40;49.70;;;;;;4919892;29;20189;-76
2022/08/24 12:34:20;;;;;;;1.20;1.10;;;37.50;50.00;;;;;;4937039;29;20192;-75
2022/08/24 12:36:54;;;;;;;1.75;1.20;;;37.60;48.80;;;;;;4926123;29;20261;-76
2022/08/24 12:39:27;;;;;;;1.77;1.40;;;37.70;49.00;;;;;;4901272;29;20175;-76
2022/08/24 12:42:15;;;;;;;1.65;1.33;;;37.80;48.60;;;;;;4901976;29;20209;-77
2022/08/24 12:44:58;;;;;;;1.70;1.40;;;38.00;47.40;;;;;;4901511;29;20182;-75
2022/08/24 12:47:37;;;;;;;1.77;1.08;;;38.10;46.50;;;;;;4916815;29;20189;-76
2022/08/24 12:50:24;;;;;;;1.73;1.30;;;38.10;46.50;;;;;;4901247;29;20713;-76
2022/08/24 12:52:59;;;;;;;2.35;1.50;;;38.10;44.40;;;;;;4900841;29;20170;-76
2022/08/24 12:55:56;;;;;;;2.05;1.33;;;38.10;45.30;;;;;;4901658;29;20264;-76
2022/08/24 12:58:24;;;;;;;2.58;1.45;;;38.20;44.50;;;;;;4884637;29;20190;-75
2022/08/24 13:00:54;;;;;;;2.20;1.40;;;38.20;45.80;;;;;;4925569;29;20225;-76
2022/08/24 13:03:33;;;;;;;1.50;1.40;;;38.30;45.60;;;;;;4913113;29;20199;-76
2022/08/24 13:06:06;;;;;;;1.88;1.30;;;38.30;44.20;;;;;;4906262;29;20197;-76
2022/08/24 13:08:44;;;;;;;2.03;1.40;;;38.30;44.70;;;;;;4900236;29;20182;-76
2022/08/24 13:11:13;;;;;;;1.90;1.50;;;38.40;45.20;;;;;;4916164;29;20180;-76
2022/08/24 13:13:41;;;;;;;1.85;1.23;;;38.40;44.90;;;;;;4932128;29;20190;-73
2022/08/24 13:16:30;;;;;;;2.20;1.48;;;38.40;44.90;;;;;;4930492;29;20220;-76
2022/08/24 13:19:22;;;;;;;1.50;1.15;;;38.50;44.30;;;;;;4882338;29;20179;-76
2022/08/24 13:22:19;;;;;;;3.33;1.50;;;38.70;42.80;;;;;;4886133;29;20189;-75
2022/08/24 13:25:01;;;;;;;2.05;1.50;;;38.80;43.80;;;;;;4889070;29;20186;-77
2022/08/24 13:27:35;;;;;;;1.30;1.20;;;38.90;43.70;;;;;;4919470;29;20441;-74